createdAt,value
2017-08-26T00:02:22.510Z,24.13
2017-08-26T00:04:50.036Z,9.13
2017-08-26T00:07:17.545Z,9.67
2017-08-26T00:09:45.044Z,9.30
2017-08-26T00:12:13.332Z,11.23
2017-08-26T00:14:40.832Z,8.20
2017-08-26T00:17:08.353Z,7.13
2017-08-26T00:19:35.938Z,6.90
2017-08-26T00:22:03.477Z,10.60
2017-08-26T00:24:30.985Z,9.23
2017-08-26T00:26:58.529Z,10.70
2017-08-26T00:29:26.032Z,11.00
2017-08-26T00:31:54.315Z,12.07
2017-08-26T00:34:21.856Z,12.70
2017-08-26T00:36:49.355Z,8.90
2017-08-26T00:39:16.872Z,11.57
2017-08-26T00:41:44.405Z,10.50
2017-08-26T00:44:11.914Z,13.63
2017-08-26T00:46:39.461Z,11.70
2017-08-26T00:49:07.743Z,13.90
2017-08-26T00:51:35.240Z,11.23
2017-08-26T00:54:02.761Z,7.93
2017-08-26T00:56:30.256Z,8.40
2017-08-26T00:58:57.798Z,13.27
2017-08-26T01:01:25.317Z,5.30
2017-08-26T01:03:52.839Z,5.83
2017-08-26T01:06:20.379Z,8.07
2017-08-26T01:08:47.906Z,7.30
2017-08-26T01:11:16.165Z,7.27
2017-08-26T01:13:43.691Z,16.37
2017-08-26T01:16:11.192Z,7.57
2017-08-26T01:18:39.473Z,16.70
2017-08-26T01:21:07.000Z,8.80
2017-08-26T01:23:34.513Z,13.33
2017-08-26T01:26:02.062Z,11.53
2017-08-26T01:28:29.574Z,8.47
2017-08-26T01:30:57.067Z,8.67
2017-08-26T01:33:24.606Z,8.70
2017-08-26T01:35:52.192Z,10.97
2017-08-26T01:38:19.702Z,9.83
2017-08-26T01:40:47.246Z,7.07
2017-08-26T01:43:14.749Z,10.17
2017-08-26T01:45:42.270Z,12.97
2017-08-26T01:48:09.814Z,9.53
2017-08-26T01:50:37.325Z,12.90
2017-08-26T01:53:04.845Z,17.50
2017-08-26T01:55:32.372Z,10.77
2017-08-26T01:57:59.876Z,17.47
2017-08-26T02:00:27.395Z,11.10
2017-08-26T02:02:54.934Z,12.00
2017-08-26T02:05:22.442Z,9.50
2017-08-26T02:07:49.963Z,15.13
2017-08-26T02:10:17.533Z,11.70
2017-08-26T02:12:45.027Z,13.80
2017-08-26T02:15:12.529Z,15.90
2017-08-26T02:17:40.070Z,11.70
2017-08-26T02:20:07.590Z,13.83
2017-08-26T02:22:35.090Z,8.23
2017-08-26T02:25:02.634Z,18.00
2017-08-26T02:27:30.134Z,11.53
2017-08-26T02:29:57.635Z,11.63
2017-08-26T02:32:25.178Z,7.93
2017-08-26T02:34:52.691Z,8.10
2017-08-26T02:37:20.210Z,12.50
2017-08-26T02:39:47.766Z,14.50
2017-08-26T02:42:15.277Z,10.67
2017-08-26T02:44:42.780Z,9.30
2017-08-26T02:47:10.318Z,9.53
2017-08-26T02:49:37.807Z,7.53
2017-08-26T02:52:05.306Z,9.63
2017-08-26T02:54:32.867Z,13.37
2017-08-26T02:57:00.442Z,11.43
2017-08-26T02:59:27.953Z,9.60
2017-08-26T03:01:55.476Z,14.53
2017-08-26T03:04:22.967Z,9.90
2017-08-26T03:06:50.469Z,10.47
2017-08-26T03:09:17.995Z,13.13
2017-08-26T03:11:45.507Z,16.67
2017-08-26T03:14:13.010Z,16.13
2017-08-26T03:16:40.540Z,11.80
2017-08-26T03:19:08.052Z,9.30
2017-08-26T03:21:35.552Z,9.83
2017-08-26T03:24:03.076Z,7.30
2017-08-26T03:26:30.594Z,12.20
2017-08-26T03:28:58.110Z,12.10
2017-08-26T03:31:25.649Z,10.13
2017-08-26T03:33:53.166Z,8.30
2017-08-26T03:36:20.686Z,12.60
2017-08-26T03:38:48.227Z,14.43
2017-08-26T03:41:15.749Z,12.67
2017-08-26T03:43:43.251Z,9.37
2017-08-26T03:46:10.800Z,11.10
2017-08-26T03:48:38.304Z,11.20
2017-08-26T03:51:05.819Z,11.60
2017-08-26T03:53:33.405Z,13.73
2017-08-26T03:56:00.923Z,11.10
2017-08-26T03:58:28.437Z,10.53
2017-08-26T04:00:55.983Z,13.13
2017-08-26T04:03:23.491Z,13.10
2017-08-26T04:05:51.755Z,14.03
2017-08-26T04:08:20.174Z,21.37
2017-08-26T04:10:47.694Z,10.90
2017-08-26T04:13:15.982Z,11.00
2017-08-26T04:15:44.286Z,14.03
2017-08-26T04:18:11.798Z,15.07
2017-08-26T04:20:39.302Z,13.00
2017-08-26T04:23:06.846Z,7.80
2017-08-26T04:25:34.349Z,10.13
2017-08-26T04:28:01.857Z,12.40
2017-08-26T04:30:29.388Z,12.57
2017-08-26T04:32:56.891Z,13.43
2017-08-26T04:35:24.388Z,13.63
2017-08-26T04:37:51.936Z,11.77
2017-08-26T04:40:19.446Z,20.73
2017-08-26T04:42:46.953Z,16.20
2017-08-26T04:45:14.498Z,14.10
2017-08-26T04:47:42.018Z,12.20
2017-08-26T04:50:09.538Z,11.47
2017-08-26T04:52:37.067Z,13.93
2017-08-26T04:55:04.564Z,11.07
2017-08-26T04:57:32.082Z,16.97
2017-08-26T04:59:59.621Z,12.87
2017-08-26T05:02:27.143Z,11.43
2017-08-26T05:04:54.644Z,10.00
2017-08-26T05:07:22.182Z,17.83
2017-08-26T05:09:49.683Z,11.53
2017-08-26T05:12:17.194Z,9.03
2017-08-26T05:14:44.797Z,16.03
2017-08-26T05:17:12.300Z,15.27
2017-08-26T05:19:39.801Z,22.20
2017-08-26T05:22:07.328Z,13.17
2017-08-26T05:24:34.848Z,10.87
2017-08-26T05:27:02.354Z,15.87
2017-08-26T05:29:29.959Z,18.80
2017-08-26T05:31:57.489Z,16.60
2017-08-26T05:34:25.016Z,26.43
2017-08-26T05:36:52.527Z,14.70
2017-08-26T05:39:20.045Z,12.27
2017-08-26T05:41:47.590Z,15.73
2017-08-26T05:44:15.214Z,16.13
2017-08-26T05:46:42.734Z,20.63
2017-08-26T05:49:10.260Z,14.37
2017-08-26T05:51:37.775Z,13.67
2017-08-26T05:54:05.492Z,20.50
2017-08-26T05:56:33.019Z,19.93
2017-08-26T05:59:00.521Z,17.40
2017-08-26T06:01:28.021Z,9.90
2017-08-26T06:03:55.567Z,15.63
2017-08-26T06:06:23.071Z,18.80
2017-08-26T06:08:50.598Z,17.63
2017-08-26T06:11:18.151Z,16.03
2017-08-26T06:13:45.657Z,14.63
2017-08-26T06:16:13.165Z,14.40
2017-08-26T06:18:40.705Z,20.93
2017-08-26T06:21:08.204Z,12.60
2017-08-26T06:23:35.792Z,11.93
2017-08-26T06:26:03.334Z,13.23
2017-08-26T06:28:30.850Z,17.00
2017-08-26T06:30:58.361Z,17.07
2017-08-26T06:33:25.888Z,17.50
2017-08-26T06:35:53.483Z,12.87
2017-08-26T06:38:20.989Z,17.70
2017-08-26T06:40:48.600Z,14.50
2017-08-26T06:43:16.119Z,11.03
2017-08-26T06:45:44.398Z,18.40
2017-08-26T06:48:12.816Z,10.60
2017-08-26T06:50:40.317Z,19.40
2017-08-26T06:53:07.815Z,14.73
2017-08-26T06:55:35.363Z,17.17
2017-08-26T06:58:02.864Z,19.60
2017-08-26T07:00:30.369Z,13.90
2017-08-26T07:02:57.919Z,12.70
2017-08-26T07:05:25.421Z,19.23
2017-08-26T07:07:52.919Z,10.13
2017-08-26T07:10:20.475Z,13.13
2017-08-26T07:12:47.990Z,12.87
2017-08-26T07:15:15.510Z,14.57
2017-08-26T07:17:43.041Z,14.10
2017-08-26T07:20:10.551Z,16.43
2017-08-26T07:22:38.054Z,14.90
2017-08-26T07:25:05.585Z,14.47
2017-08-26T07:27:33.871Z,14.73
2017-08-26T07:30:01.382Z,18.37
2017-08-26T07:32:28.908Z,24.03
2017-08-26T07:34:56.408Z,18.23
2017-08-26T07:37:23.931Z,27.23
2017-08-26T07:39:51.450Z,12.00
2017-08-26T07:42:18.963Z,30.30
2017-08-26T07:44:46.514Z,19.10
2017-08-26T07:47:14.133Z,14.73
2017-08-26T07:49:41.640Z,18.70
2017-08-26T07:52:09.172Z,25.87
2017-08-26T07:54:36.690Z,14.87
2017-08-26T07:57:04.222Z,15.17
2017-08-26T07:59:31.774Z,25.57
2017-08-26T08:01:59.301Z,14.00
2017-08-26T08:04:26.808Z,10.70
2017-08-26T08:06:54.350Z,23.97
2017-08-26T08:09:22.684Z,9.90
2017-08-26T08:11:50.201Z,17.47
2017-08-26T08:14:17.733Z,13.17
2017-08-26T08:16:45.251Z,6.43
2017-08-26T08:19:12.761Z,9.80
2017-08-26T08:21:40.369Z,6.03
2017-08-26T08:24:07.882Z,8.60
2017-08-26T08:26:35.396Z,6.87
2017-08-26T08:29:02.930Z,5.20
2017-08-26T08:31:30.437Z,4.63
2017-08-26T08:33:57.932Z,5.47
2017-08-26T08:36:25.479Z,4.97
2017-08-26T08:38:53.081Z,4.43
2017-08-26T08:41:20.579Z,6.00
2017-08-26T08:43:48.198Z,4.17
2017-08-26T08:46:15.700Z,6.13
2017-08-26T08:48:43.200Z,4.63
2017-08-26T08:51:10.723Z,4.90
2017-08-26T08:53:38.234Z,7.87
2017-08-26T08:56:05.743Z,5.97
2017-08-26T08:58:33.273Z,4.10
2017-08-26T09:01:00.803Z,5.40
2017-08-26T09:03:28.305Z,4.40
2017-08-26T09:05:55.829Z,4.50
2017-08-26T09:08:23.319Z,5.87
2017-08-26T09:10:50.835Z,4.63
2017-08-26T09:13:18.354Z,4.40
2017-08-26T09:15:45.856Z,6.93
2017-08-26T09:18:13.365Z,8.73
2017-08-26T09:20:40.915Z,5.83
2017-08-26T09:23:08.415Z,7.20
2017-08-26T09:25:35.956Z,8.90
2017-08-26T09:28:03.502Z,7.70
2017-08-26T09:30:31.034Z,7.30
2017-08-26T09:32:58.532Z,6.50
2017-08-26T09:35:26.820Z,10.13
2017-08-26T09:37:54.388Z,4.60
2017-08-26T09:40:21.911Z,5.50
2017-08-26T09:42:49.427Z,6.53
2017-08-26T09:45:16.942Z,7.07
2017-08-26T09:47:44.463Z,8.50
2017-08-26T09:50:11.964Z,7.90
2017-08-26T09:52:39.482Z,9.60
2017-08-26T09:55:07.022Z,16.40
2017-08-26T09:57:34.523Z,10.80
2017-08-26T10:00:02.034Z,6.10
2017-08-26T10:02:29.569Z,8.27
2017-08-26T10:04:57.085Z,9.57
2017-08-26T10:07:24.584Z,8.30
2017-08-26T10:09:52.154Z,6.23
2017-08-26T10:12:19.647Z,8.83
2017-08-26T10:14:47.170Z,5.40
2017-08-26T10:17:14.712Z,5.47
2017-08-26T10:19:42.212Z,7.60
2017-08-26T10:22:10.498Z,16.93
2017-08-26T10:24:38.039Z,6.70
2017-08-26T10:27:05.549Z,7.77
2017-08-26T10:29:33.048Z,7.27
2017-08-26T10:32:00.595Z,6.83
2017-08-26T10:34:28.096Z,7.23
2017-08-26T10:36:55.606Z,9.67
2017-08-26T10:39:23.129Z,8.00
2017-08-26T10:41:50.630Z,7.80
2017-08-26T10:44:18.155Z,15.57
2017-08-26T10:46:46.446Z,12.63
2017-08-26T10:49:13.962Z,7.40
2017-08-26T10:51:41.459Z,6.63
2017-08-26T10:54:09.026Z,8.97
2017-08-26T10:56:36.529Z,7.10
2017-08-26T10:59:04.060Z,8.13
2017-08-26T11:01:31.596Z,11.97
2017-08-26T11:03:59.087Z,9.00
2017-08-26T11:06:26.638Z,9.30
2017-08-26T11:08:54.173Z,10.73
2017-08-26T11:11:21.694Z,13.77
2017-08-26T11:13:49.196Z,6.50
2017-08-26T11:16:16.734Z,8.60
2017-08-26T11:18:44.250Z,10.87
2017-08-26T11:21:11.762Z,8.90
2017-08-26T11:23:39.676Z,9.70
2017-08-26T11:26:07.167Z,7.10
2017-08-26T11:28:35.447Z,9.87
2017-08-26T11:31:03.742Z,9.77
2017-08-26T11:33:31.252Z,10.53
2017-08-26T11:35:58.775Z,8.00
2017-08-26T11:38:26.303Z,9.57
2017-08-26T11:40:53.892Z,12.50
2017-08-26T11:43:21.391Z,7.27
2017-08-26T11:45:48.930Z,9.47
2017-08-26T11:48:16.462Z,10.17
2017-08-26T11:50:43.989Z,6.60
2017-08-26T11:53:11.589Z,13.77
2017-08-26T11:55:39.110Z,8.07
2017-08-26T11:58:06.606Z,7.90
2017-08-26T12:00:34.150Z,9.07
2017-08-26T12:03:01.667Z,9.03
2017-08-26T12:05:29.167Z,9.03
2017-08-26T12:07:56.754Z,9.10
2017-08-26T12:10:24.262Z,6.53
2017-08-26T12:12:51.857Z,12.80
2017-08-26T12:15:19.412Z,7.77
2017-08-26T12:17:46.921Z,6.87
2017-08-26T12:20:14.438Z,15.93
2017-08-26T12:22:41.986Z,11.20
2017-08-26T12:25:09.479Z,8.03
2017-08-26T12:27:37.340Z,9.13
2017-08-26T12:30:04.882Z,9.80
2017-08-26T12:32:32.380Z,8.20
2017-08-26T12:34:59.903Z,9.80
2017-08-26T12:37:27.424Z,7.53
2017-08-26T12:39:54.924Z,11.70
2017-08-26T12:42:22.441Z,10.50
2017-08-26T12:44:49.990Z,8.53
2017-08-26T12:47:17.506Z,7.67
2017-08-26T12:49:45.003Z,10.77
2017-08-26T12:52:13.314Z,12.20
2017-08-26T12:54:40.820Z,9.37
2017-08-26T12:57:08.331Z,9.97
2017-08-26T12:59:35.887Z,9.40
2017-08-26T13:02:03.411Z,11.00
2017-08-26T13:04:30.912Z,13.40
2017-08-26T13:06:58.440Z,12.30
2017-08-26T13:09:25.940Z,15.80
2017-08-26T13:11:53.455Z,11.00
2017-08-26T13:14:20.994Z,12.60
2017-08-26T13:16:48.600Z,12.97
2017-08-26T13:19:16.095Z,9.90
2017-08-26T13:21:43.628Z,10.50
2017-08-26T13:24:11.790Z,10.80
2017-08-26T13:26:40.130Z,10.27
2017-08-26T13:29:08.135Z,8.27
2017-08-26T13:31:35.819Z,11.80
2017-08-26T13:34:03.329Z,10.37
2017-08-26T13:36:30.865Z,7.93
2017-08-26T13:38:58.386Z,9.60
2017-08-26T13:41:25.935Z,11.27
2017-08-26T13:43:53.467Z,11.20
2017-08-26T13:46:20.995Z,10.60
2017-08-26T13:48:48.501Z,10.20
2017-08-26T13:51:16.049Z,14.30
2017-08-26T13:53:43.571Z,13.20
2017-08-26T13:56:11.094Z,10.53
2017-08-26T13:58:39.439Z,14.83
2017-08-26T14:01:06.958Z,20.07
2017-08-26T14:03:35.228Z,9.90
2017-08-26T14:06:02.782Z,21.87
2017-08-26T14:08:30.285Z,16.13
2017-08-26T14:10:57.800Z,14.07
2017-08-26T14:13:25.327Z,12.43
2017-08-26T14:15:52.828Z,11.23
2017-08-26T14:18:20.346Z,12.03
2017-08-26T14:20:47.910Z,15.10
2017-08-26T14:23:15.412Z,12.13
2017-08-26T14:25:43.008Z,13.30
2017-08-26T14:28:10.571Z,12.63
2017-08-26T14:30:38.224Z,19.70
2017-08-26T14:33:05.754Z,17.23
2017-08-26T14:35:33.368Z,15.90
2017-08-26T14:38:00.887Z,16.87
2017-08-26T14:40:28.490Z,18.40
2017-08-26T14:42:56.019Z,16.10
2017-08-26T14:45:23.543Z,19.23
2017-08-26T14:47:51.296Z,13.40
2017-08-26T14:50:18.829Z,15.00
2017-08-26T14:52:46.331Z,13.80
2017-08-26T14:55:14.616Z,17.20
2017-08-26T14:57:42.174Z,17.57
2017-08-26T15:00:10.432Z,12.93
2017-08-26T15:02:37.958Z,14.60
2017-08-26T15:05:05.504Z,12.07
2017-08-26T15:07:33.008Z,14.07
2017-08-26T15:10:00.512Z,16.93
2017-08-26T15:12:28.048Z,16.30
2017-08-26T15:14:55.550Z,10.90
2017-08-26T15:17:23.183Z,18.17
2017-08-26T15:19:50.758Z,16.10
2017-08-26T15:22:18.285Z,11.30
2017-08-26T15:24:46.555Z,15.27
2017-08-26T15:27:14.101Z,20.20
2017-08-26T15:29:41.614Z,11.07
2017-08-26T15:32:09.128Z,14.60
2017-08-26T15:34:37.443Z,13.47
2017-08-26T15:37:05.061Z,13.63
2017-08-26T15:39:32.560Z,22.03
2017-08-26T15:42:00.110Z,21.37
2017-08-26T15:44:27.611Z,18.10
2017-08-26T15:46:55.112Z,14.53
2017-08-26T15:49:22.665Z,14.20
2017-08-26T15:51:50.187Z,17.67
2017-08-26T15:54:17.712Z,19.97
2017-08-26T15:56:45.244Z,21.13
2017-08-26T15:59:12.747Z,24.83
2017-08-26T16:01:40.256Z,26.60
2017-08-26T16:04:08.574Z,21.83
2017-08-26T16:06:36.093Z,18.50
2017-08-26T16:09:03.601Z,27.10
2017-08-26T16:11:31.142Z,20.60
2017-08-26T16:13:58.658Z,28.47
2017-08-26T16:16:26.160Z,23.23
2017-08-26T16:18:53.820Z,21.40
2017-08-26T16:21:21.332Z,31.73
2017-08-26T16:23:48.945Z,19.07
2017-08-26T16:26:16.480Z,20.20
2017-08-26T16:28:44.018Z,20.67
2017-08-26T16:31:12.288Z,24.20
2017-08-26T16:33:39.855Z,24.03
2017-08-26T16:36:07.355Z,25.13
2017-08-26T16:38:34.892Z,29.30
2017-08-26T16:41:02.450Z,32.90
2017-08-26T16:43:29.967Z,23.67
2017-08-26T16:45:57.487Z,47.43
2017-08-26T16:48:25.034Z,36.67
2017-08-26T16:50:52.536Z,33.20
2017-08-26T16:53:20.044Z,37.93
2017-08-26T16:55:47.613Z,42.40
2017-08-26T16:58:15.130Z,46.43
2017-08-26T17:00:42.657Z,43.97
2017-08-26T17:03:10.191Z,44.73
2017-08-26T17:05:37.692Z,45.43
2017-08-26T17:08:05.207Z,45.47
2017-08-26T17:10:32.736Z,48.57
2017-08-26T17:13:01.018Z,47.90
2017-08-26T17:15:28.542Z,43.83
2017-08-26T17:17:56.169Z,54.87
2017-08-26T17:20:23.688Z,58.17
2017-08-26T17:22:51.223Z,44.57
2017-08-26T17:25:18.755Z,53.27
2017-08-26T17:27:46.264Z,44.13
2017-08-26T17:30:13.772Z,44.57
2017-08-26T17:32:41.304Z,49.57
2017-08-26T17:35:08.875Z,44.97
2017-08-26T17:37:36.381Z,60.03
2017-08-26T17:40:03.927Z,55.20
2017-08-26T17:42:31.450Z,41.80
2017-08-26T17:44:59.004Z,54.83
2017-08-26T17:47:26.527Z,49.43
2017-08-26T17:49:54.805Z,50.50
2017-08-26T17:52:22.358Z,48.23
2017-08-26T17:54:49.879Z,48.77
2017-08-26T17:57:17.430Z,44.50
2017-08-26T17:59:44.975Z,51.87
2017-08-26T18:02:12.496Z,51.53
2017-08-26T18:04:40.791Z,54.57
2017-08-26T18:07:08.310Z,53.20
2017-08-26T18:09:35.859Z,57.63
2017-08-26T18:12:03.359Z,48.87
2017-08-26T18:14:31.636Z,43.90
2017-08-26T18:16:59.223Z,49.17
2017-08-26T18:19:26.723Z,50.90
2017-08-26T18:21:54.237Z,40.17
2017-08-26T18:24:21.774Z,50.87
2017-08-26T18:26:49.305Z,46.03
2017-08-26T18:29:16.837Z,35.80
2017-08-26T18:31:44.867Z,44.03
2017-08-26T18:34:12.367Z,39.50
2017-08-26T18:36:39.906Z,36.87
2017-08-26T18:39:07.408Z,47.47
2017-08-26T18:41:34.966Z,46.80
2017-08-26T18:44:02.473Z,41.23
2017-08-26T18:46:29.990Z,37.07
2017-08-26T18:48:57.511Z,40.30
2017-08-26T18:51:25.012Z,38.50
2017-08-26T18:53:52.553Z,38.83
2017-08-26T18:56:20.074Z,40.63
2017-08-26T18:58:47.623Z,39.23
2017-08-26T19:01:15.138Z,38.80
2017-08-26T19:03:42.682Z,40.53
2017-08-26T19:06:10.202Z,49.40
2017-08-26T19:08:37.713Z,37.40
2017-08-26T19:11:05.235Z,41.30
2017-08-26T19:13:32.740Z,36.00
2017-08-26T19:16:00.290Z,38.83
2017-08-26T19:18:27.802Z,41.80
2017-08-26T19:20:55.321Z,44.70
2017-08-26T19:23:22.844Z,48.20
2017-08-26T19:25:50.368Z,45.60
2017-08-26T19:28:17.903Z,40.50
2017-08-26T19:30:45.426Z,39.60
2017-08-26T19:33:12.946Z,42.83
2017-08-26T19:35:40.505Z,40.40
2017-08-26T19:38:08.062Z,47.83
2017-08-26T19:40:35.582Z,51.03
2017-08-26T19:43:03.896Z,49.47
2017-08-26T19:45:31.422Z,56.57
2017-08-26T19:47:58.963Z,49.47
2017-08-26T19:50:26.573Z,56.70
2017-08-26T19:52:54.102Z,54.73
2017-08-26T19:55:21.692Z,56.90
2017-08-26T19:57:49.251Z,49.80
2017-08-26T20:00:16.752Z,46.87
2017-08-26T20:02:44.305Z,57.23
2017-08-26T20:05:11.812Z,50.33
2017-08-26T20:07:39.328Z,49.20
2017-08-26T20:10:06.874Z,56.30
2017-08-26T20:12:34.502Z,53.83
2017-08-26T20:15:02.018Z,46.00
2017-08-26T20:17:29.565Z,62.93
2017-08-26T20:19:57.064Z,52.27
2017-08-26T20:22:24.585Z,57.00
2017-08-26T20:24:52.195Z,60.23
2017-08-26T20:27:19.695Z,50.60
2017-08-26T20:29:47.314Z,58.47
2017-08-26T20:32:14.847Z,58.20
2017-08-26T20:34:42.351Z,73.30
2017-08-26T20:37:09.876Z,66.13
2017-08-26T20:39:37.398Z,66.43
2017-08-26T20:42:05.011Z,67.60
2017-08-26T20:44:32.516Z,69.73
2017-08-26T20:47:00.130Z,65.57
2017-08-26T20:49:27.641Z,68.60
2017-08-26T20:51:55.144Z,67.00
2017-08-26T20:54:22.683Z,68.77
2017-08-26T20:56:50.202Z,75.70
2017-08-26T20:59:17.749Z,63.90
2017-08-26T21:01:45.252Z,69.80
2017-08-26T21:04:12.839Z,71.53
2017-08-26T21:06:40.359Z,65.43
2017-08-26T21:09:07.864Z,64.43
2017-08-26T21:11:35.394Z,57.87
2017-08-26T21:14:02.892Z,66.63
2017-08-26T21:16:30.428Z,63.37
2017-08-26T21:18:57.952Z,62.70
2017-08-26T21:21:25.548Z,62.70
2017-08-26T21:23:53.094Z,64.37
2017-08-26T21:26:20.610Z,67.37
2017-08-26T21:28:48.142Z,66.40
2017-08-26T21:31:15.677Z,57.57
2017-08-26T21:33:43.194Z,57.67
2017-08-26T21:36:10.729Z,62.73
2017-08-26T21:38:38.250Z,54.67
2017-08-26T21:41:05.779Z,61.57
2017-08-26T21:43:33.280Z,57.20
2017-08-26T21:46:00.779Z,56.00
2017-08-26T21:48:28.304Z,56.40
2017-08-26T21:50:55.807Z,53.17
2017-08-26T21:53:23.356Z,52.97
2017-08-26T21:55:50.863Z,49.60
2017-08-26T21:58:18.364Z,48.33
2017-08-26T22:00:45.911Z,51.80
2017-08-26T22:03:13.430Z,50.63
2017-08-26T22:05:40.974Z,44.70
2017-08-26T22:08:08.475Z,61.23
2017-08-26T22:10:35.976Z,52.23
2017-08-26T22:13:03.530Z,47.20
2017-08-26T22:15:31.036Z,51.47
2017-08-26T22:17:58.693Z,54.07
2017-08-26T22:20:26.230Z,41.13
2017-08-26T22:22:53.732Z,49.60
2017-08-26T22:25:21.278Z,48.10
2017-08-26T22:27:48.798Z,49.33
2017-08-26T22:30:16.386Z,44.57
2017-08-26T22:32:44.703Z,50.80
2017-08-26T22:35:12.203Z,45.73
2017-08-26T22:37:39.762Z,48.40
2017-08-26T22:40:07.287Z,48.93
2017-08-26T22:42:34.899Z,40.70
2017-08-26T22:45:02.432Z,50.60
2017-08-26T22:47:30.714Z,45.70
2017-08-26T22:49:58.259Z,49.77
2017-08-26T22:52:25.768Z,44.43
2017-08-26T22:54:53.310Z,45.63
2017-08-26T22:57:20.816Z,48.73
2017-08-26T22:59:48.341Z,52.30
2017-08-26T23:02:15.867Z,46.00
2017-08-26T23:04:43.410Z,44.87
2017-08-26T23:07:10.912Z,43.27
2017-08-26T23:09:38.430Z,57.40
2017-08-26T23:12:05.964Z,42.80
2017-08-26T23:14:33.482Z,42.60
2017-08-26T23:17:00.999Z,43.73
2017-08-26T23:19:28.528Z,50.23
2017-08-26T23:21:56.028Z,46.70
2017-08-26T23:24:23.531Z,44.60
2017-08-26T23:26:51.051Z,46.07
2017-08-26T23:29:18.570Z,36.03
2017-08-26T23:31:46.097Z,53.37
2017-08-26T23:34:13.604Z,43.93
2017-08-26T23:36:41.136Z,34.90
2017-08-26T23:39:08.778Z,42.87
2017-08-26T23:41:36.284Z,52.07
2017-08-26T23:44:03.835Z,42.13
2017-08-26T23:46:32.152Z,36.47
2017-08-26T23:48:59.670Z,45.80
2017-08-26T23:51:27.977Z,41.33
2017-08-26T23:53:55.498Z,44.17
2017-08-26T23:56:23.028Z,42.53
2017-08-26T23:58:50.536Z,45.50
